sensor_id;sensor_type;location;lat;lon;timestamp;P1;durP1;ratioP1;P2;durP2;ratioP2
49722;SDS011;43484;43.608;1.458;2023-03-02T00:01:25;13.30;;;7.13;;
49722;SDS011;43484;43.608;1.458;2023-03-02T00:03:54;12.20;;;7.93;;
49722;SDS011;43484;43.608;1.458;2023-03-02T00:06:25;12.63;;;7.70;;
49722;SDS011;43484;43.608;1.458;2023-03-02T00:08:53;13.90;;;8.20;;
49722;SDS011;43484;43.608;1.458;2023-03-02T00:11:21;12.57;;;7.07;;
49722;SDS011;43484;43.608;1.458;2023-03-02T00:13:47;10.50;;;7.70;;
49722;SDS011;43484;43.608;1.458;2023-03-02T00:16:14;15.83;;;8.30;;
49722;SDS011;43484;43.608;1.458;2023-03-02T00:18:41;11.30;;;7.33;;
49722;SDS011;43484;43.608;1.458;2023-03-02T00:21:07;10.23;;;7.57;;
49722;SDS011;43484;43.608;1.458;2023-03-02T00:23:36;11.53;;;8.50;;
49722;SDS011;43484;43.608;1.458;2023-03-02T00:26:05;11.47;;;7.47;;
49722;SDS011;43484;43.608;1.458;2023-03-02T00:28:32;16.37;;;8.97;;
49722;SDS011;43484;43.608;1.458;2023-03-02T00:31:02;13.70;;;7.70;;
49722;SDS011;43484;43.608;1.458;2023-03-02T00:33:30;14.43;;;8.00;;
49722;SDS011;43484;43.608;1.458;2023-03-02T00:35:58;16.17;;;8.33;;
49722;SDS011;43484;43.608;1.458;2023-03-02T00:38:25;13.47;;;8.30;;
49722;SDS011;43484;43.608;1.458;2023-03-02T00:40:53;17.70;;;8.87;;
49722;SDS011;43484;43.608;1.458;2023-03-02T00:43:21;16.63;;;7.87;;
49722;SDS011;43484;43.608;1.458;2023-03-02T00:45:53;16.80;;;8.47;;
49722;SDS011;43484;43.608;1.458;2023-03-02T00:48:21;14.73;;;8.67;;
49722;SDS011;43484;43.608;1.458;2023-03-02T00:50:48;8.87;;;7.17;;
49722;SDS011;43484;43.608;1.458;2023-03-02T00:53:15;14.53;;;8.37;;
49722;SDS011;43484;43.608;1.458;2023-03-02T00:55:51;13.17;;;8.03;;
49722;SDS011;43484;43.608;1.458;2023-03-02T00:58:19;12.80;;;8.23;;
49722;SDS011;43484;43.608;1.458;2023-03-02T01:00:47;13.97;;;8.60;;
49722;SDS011;43484;43.608;1.458;2023-03-02T01:03:14;12.40;;;8.17;;
49722;SDS011;43484;43.608;1.458;2023-03-02T01:05:41;18.27;;;11.50;;
49722;SDS011;43484;43.608;1.458;2023-03-02T01:08:07;14.20;;;8.70;;
49722;SDS011;43484;43.608;1.458;2023-03-02T01:10:34;16.37;;;9.80;;
49722;SDS011;43484;43.608;1.458;2023-03-02T01:13:01;16.10;;;9.50;;
49722;SDS011;43484;43.608;1.458;2023-03-02T01:15:28;18.40;;;8.97;;
49722;SDS011;43484;43.608;1.458;2023-03-02T01:17:54;14.00;;;9.30;;
49722;SDS011;43484;43.608;1.458;2023-03-02T01:20:21;14.60;;;9.03;;
49722;SDS011;43484;43.608;1.458;2023-03-02T01:22:47;13.70;;;9.67;;
49722;SDS011;43484;43.608;1.458;2023-03-02T01:25:14;14.07;;;8.87;;
49722;SDS011;43484;43.608;1.458;2023-03-02T01:27:41;16.20;;;8.97;;
49722;SDS011;43484;43.608;1.458;2023-03-02T01:30:08;17.17;;;10.07;;
49722;SDS011;43484;43.608;1.458;2023-03-02T01:32:35;20.13;;;9.83;;
49722;SDS011;43484;43.608;1.458;2023-03-02T01:35:02;16.50;;;9.80;;
49722;SDS011;43484;43.608;1.458;2023-03-02T01:37:28;13.37;;;10.07;;
49722;SDS011;43484;43.608;1.458;2023-03-02T01:39:55;17.03;;;9.47;;
49722;SDS011;43484;43.608;1.458;2023-03-02T01:42:22;14.43;;;8.97;;
49722;SDS011;43484;43.608;1.458;2023-03-02T01:44:49;16.40;;;9.23;;
49722;SDS011;43484;43.608;1.458;2023-03-02T01:49:47;15.53;;;9.30;;
49722;SDS011;43484;43.608;1.458;2023-03-02T01:52:21;17.47;;;9.37;;
49722;SDS011;43484;43.608;1.458;2023-03-02T01:54:49;16.40;;;9.80;;
49722;SDS011;43484;43.608;1.458;2023-03-02T01:57:19;16.73;;;10.13;;
49722;SDS011;43484;43.608;1.458;2023-03-02T01:59:53;15.93;;;9.67;;
49722;SDS011;43484;43.608;1.458;2023-03-02T02:02:25;18.57;;;9.50;;
49722;SDS011;43484;43.608;1.458;2023-03-02T02:04:52;14.73;;;8.60;;
49722;SDS011;43484;43.608;1.458;2023-03-02T02:07:21;13.13;;;8.97;;
49722;SDS011;43484;43.608;1.458;2023-03-02T02:09:48;19.67;;;10.00;;
49722;SDS011;43484;43.608;1.458;2023-03-02T02:12:18;15.60;;;10.10;;
49722;SDS011;43484;43.608;1.458;2023-03-02T02:14:46;16.60;;;9.97;;
49722;SDS011;43484;43.608;1.458;2023-03-02T02:17:15;14.43;;;9.17;;
49722;SDS011;43484;43.608;1.458;2023-03-02T02:22:53;14.73;;;9.38;;
49722;SDS011;43484;43.608;1.458;2023-03-02T02:33:52;17.77;;;9.37;;
49722;SDS011;43484;43.608;1.458;2023-03-02T02:36:24;15.87;;;9.63;;
49722;SDS011;43484;43.608;1.458;2023-03-02T02:38:59;16.80;;;9.30;;
49722;SDS011;43484;43.608;1.458;2023-03-02T02:41:33;12.57;;;9.37;;
49722;SDS011;43484;43.608;1.458;2023-03-02T02:44:03;18.25;;;9.75;;
49722;SDS011;43484;43.608;1.458;2023-03-02T02:46:30;14.90;;;9.80;;
49722;SDS011;43484;43.608;1.458;2023-03-02T02:48:59;15.57;;;9.80;;
49722;SDS011;43484;43.608;1.458;2023-03-02T02:51:27;15.07;;;9.80;;
49722;SDS011;43484;43.608;1.458;2023-03-02T02:53:56;16.43;;;9.37;;
49722;SDS011;43484;43.608;1.458;2023-03-02T02:56:28;13.63;;;9.30;;
49722;SDS011;43484;43.608;1.458;2023-03-02T02:59:00;14.13;;;9.47;;
49722;SDS011;43484;43.608;1.458;2023-03-02T03:01:31;18.27;;;9.47;;
49722;SDS011;43484;43.608;1.458;2023-03-02T03:04:01;15.40;;;9.83;;
49722;SDS011;43484;43.608;1.458;2023-03-02T03:06:29;15.17;;;10.07;;
49722;SDS011;43484;43.608;1.458;2023-03-02T03:11:32;19.23;;;9.20;;
49722;SDS011;43484;43.608;1.458;2023-03-02T03:16:41;14.87;;;9.97;;
49722;SDS011;43484;43.608;1.458;2023-03-02T03:19:16;16.13;;;9.60;;
49722;SDS011;43484;43.608;1.458;2023-03-02T03:21:44;16.10;;;10.57;;
49722;SDS011;43484;43.608;1.458;2023-03-02T03:24:11;16.17;;;10.30;;
49722;SDS011;43484;43.608;1.458;2023-03-02T03:26:37;18.23;;;10.17;;
49722;SDS011;43484;43.608;1.458;2023-03-02T03:29:04;17.77;;;10.27;;
49722;SDS011;43484;43.608;1.458;2023-03-02T03:31:31;14.90;;;10.30;;
49722;SDS011;43484;43.608;1.458;2023-03-02T03:33:58;20.63;;;10.47;;
49722;SDS011;43484;43.608;1.458;2023-03-02T03:36:27;17.03;;;10.93;;
49722;SDS011;43484;43.608;1.458;2023-03-02T03:38:54;14.20;;;10.47;;
49722;SDS011;43484;43.608;1.458;2023-03-02T03:41:22;17.83;;;10.57;;
49722;SDS011;43484;43.608;1.458;2023-03-02T03:43:49;19.03;;;10.30;;
49722;SDS011;43484;43.608;1.458;2023-03-02T03:46:16;16.40;;;10.57;;
49722;SDS011;43484;43.608;1.458;2023-03-02T03:48:43;19.30;;;10.63;;
49722;SDS011;43484;43.608;1.458;2023-03-02T03:51:10;22.80;;;10.23;;
49722;SDS011;43484;43.608;1.458;2023-03-02T03:53:37;15.33;;;10.17;;
49722;SDS011;43484;43.608;1.458;2023-03-02T03:56:03;17.63;;;10.60;;
49722;SDS011;43484;43.608;1.458;2023-03-02T03:58:30;21.13;;;11.20;;
49722;SDS011;43484;43.608;1.458;2023-03-02T04:00:57;14.60;;;9.90;;
49722;SDS011;43484;43.608;1.458;2023-03-02T04:03:24;14.67;;;10.33;;
49722;SDS011;43484;43.608;1.458;2023-03-02T04:05:52;17.67;;;11.30;;
49722;SDS011;43484;43.608;1.458;2023-03-02T04:08:18;20.07;;;10.50;;
49722;SDS011;43484;43.608;1.458;2023-03-02T04:10:45;19.07;;;10.17;;
49722;SDS011;43484;43.608;1.458;2023-03-02T04:13:12;18.90;;;10.50;;
49722;SDS011;43484;43.608;1.458;2023-03-02T04:15:38;17.23;;;10.87;;
49722;SDS011;43484;43.608;1.458;2023-03-02T04:18:06;16.57;;;10.70;;
49722;SDS011;43484;43.608;1.458;2023-03-02T04:20:34;17.47;;;11.30;;
49722;SDS011;43484;43.608;1.458;2023-03-02T04:23:00;15.43;;;10.23;;
49722;SDS011;43484;43.608;1.458;2023-03-02T04:25:27;24.67;;;13.00;;
49722;SDS011;43484;43.608;1.458;2023-03-02T04:27:54;15.87;;;11.10;;
49722;SDS011;43484;43.608;1.458;2023-03-02T04:30:23;18.17;;;10.90;;
49722;SDS011;43484;43.608;1.458;2023-03-02T04:32:50;15.53;;;10.03;;
49722;SDS011;43484;43.608;1.458;2023-03-02T04:35:18;14.20;;;9.87;;
49722;SDS011;43484;43.608;1.458;2023-03-02T04:37:45;18.50;;;11.10;;
49722;SDS011;43484;43.608;1.458;2023-03-02T04:40:12;20.73;;;11.13;;
49722;SDS011;43484;43.608;1.458;2023-03-02T04:42:40;15.37;;;10.77;;
49722;SDS011;43484;43.608;1.458;2023-03-02T04:45:07;16.50;;;11.17;;
49722;SDS011;43484;43.608;1.458;2023-03-02T04:47:34;15.27;;;10.77;;
49722;SDS011;43484;43.608;1.458;2023-03-02T04:50:01;17.37;;;11.40;;
49722;SDS011;43484;43.608;1.458;2023-03-02T04:52:28;19.67;;;10.77;;
49722;SDS011;43484;43.608;1.458;2023-03-02T04:54:54;20.40;;;11.87;;
49722;SDS011;43484;43.608;1.458;2023-03-02T04:57:21;16.50;;;11.00;;
49722;SDS011;43484;43.608;1.458;2023-03-02T04:59:47;23.40;;;12.07;;
49722;SDS011;43484;43.608;1.458;2023-03-02T05:02:14;16.53;;;10.67;;
49722;SDS011;43484;43.608;1.458;2023-03-02T05:04:41;17.57;;;10.53;;
49722;SDS011;43484;43.608;1.458;2023-03-02T05:07:07;15.57;;;10.37;;
49722;SDS011;43484;43.608;1.458;2023-03-02T05:09:34;14.27;;;9.63;;
49722;SDS011;43484;43.608;1.458;2023-03-02T05:12:01;16.37;;;9.53;;
49722;SDS011;43484;43.608;1.458;2023-03-02T05:14:27;19.23;;;10.40;;
49722;SDS011;43484;43.608;1.458;2023-03-02T05:16:54;19.67;;;10.27;;
49722;SDS011;43484;43.608;1.458;2023-03-02T05:19:21;16.97;;;9.80;;
49722;SDS011;43484;43.608;1.458;2023-03-02T05:21:48;15.60;;;10.90;;
49722;SDS011;43484;43.608;1.458;2023-03-02T05:24:15;14.77;;;9.83;;
49722;SDS011;43484;43.608;1.458;2023-03-02T05:26:41;14.13;;;9.83;;
49722;SDS011;43484;43.608;1.458;2023-03-02T05:29:08;19.00;;;12.10;;
49722;SDS011;43484;43.608;1.458;2023-03-02T05:31:39;17.73;;;9.73;;
49722;SDS011;43484;43.608;1.458;2023-03-02T05:34:09;17.53;;;11.20;;
49722;SDS011;43484;43.608;1.458;2023-03-02T05:36:38;14.60;;;10.13;;
49722;SDS011;43484;43.608;1.458;2023-03-02T05:39:05;17.13;;;10.10;;
49722;SDS011;43484;43.608;1.458;2023-03-02T05:41:32;18.27;;;11.13;;
49722;SDS011;43484;43.608;1.458;2023-03-02T05:43:59;17.40;;;10.90;;
49722;SDS011;43484;43.608;1.458;2023-03-02T05:46:26;16.03;;;10.77;;
49722;SDS011;43484;43.608;1.458;2023-03-02T05:48:53;17.77;;;10.90;;
49722;SDS011;43484;43.608;1.458;2023-03-02T05:51:19;15.03;;;10.00;;
49722;SDS011;43484;43.608;1.458;2023-03-02T05:53:46;14.77;;;9.63;;
49722;SDS011;43484;43.608;1.458;2023-03-02T05:56:13;20.00;;;10.77;;
49722;SDS011;43484;43.608;1.458;2023-03-02T05:58:39;16.70;;;10.33;;
49722;SDS011;43484;43.608;1.458;2023-03-02T06:01:07;18.37;;;10.50;;
49722;SDS011;43484;43.608;1.458;2023-03-02T06:03:35;19.23;;;10.03;;
49722;SDS011;43484;43.608;1.458;2023-03-02T06:06:02;14.47;;;9.83;;
49722;SDS011;43484;43.608;1.458;2023-03-02T06:08:29;18.90;;;10.67;;
49722;SDS011;43484;43.608;1.458;2023-03-02T06:10:55;15.60;;;9.87;;
49722;SDS011;43484;43.608;1.458;2023-03-02T06:13:22;17.43;;;10.40;;
49722;SDS011;43484;43.608;1.458;2023-03-02T06:15:51;15.83;;;9.83;;
49722;SDS011;43484;43.608;1.458;2023-03-02T06:18:18;14.37;;;9.40;;
49722;SDS011;43484;43.608;1.458;2023-03-02T06:20:45;25.63;;;10.90;;
49722;SDS011;43484;43.608;1.458;2023-03-02T06:23:11;17.63;;;10.63;;
49722;SDS011;43484;43.608;1.458;2023-03-02T06:25:38;14.53;;;9.80;;
49722;SDS011;43484;43.608;1.458;2023-03-02T06:28:08;18.47;;;10.17;;
49722;SDS011;43484;43.608;1.458;2023-03-02T06:30:35;15.70;;;9.63;;
49722;SDS011;43484;43.608;1.458;2023-03-02T06:33:01;16.53;;;9.63;;
49722;SDS011;43484;43.608;1.458;2023-03-02T06:35:28;15.60;;;9.67;;
49722;SDS011;43484;43.608;1.458;2023-03-02T06:37:55;20.53;;;9.43;;
49722;SDS011;43484;43.608;1.458;2023-03-02T06:40:21;12.23;;;8.60;;
49722;SDS011;43484;43.608;1.458;2023-03-02T06:42:48;16.30;;;9.40;;
49722;SDS011;43484;43.608;1.458;2023-03-02T06:45:15;13.03;;;8.63;;
49722;SDS011;43484;43.608;1.458;2023-03-02T06:47:42;19.97;;;10.17;;
49722;SDS011;43484;43.608;1.458;2023-03-02T06:50:08;14.90;;;8.50;;
49722;SDS011;43484;43.608;1.458;2023-03-02T06:52:35;14.10;;;8.40;;
49722;SDS011;43484;43.608;1.458;2023-03-02T06:55:02;15.33;;;8.53;;
49722;SDS011;43484;43.608;1.458;2023-03-02T06:57:29;13.37;;;8.70;;
49722;SDS011;43484;43.608;1.458;2023-03-02T07:00:08;16.63;;;8.50;;
49722;SDS011;43484;43.608;1.458;2023-03-02T07:02:43;14.00;;;8.30;;
49722;SDS011;43484;43.608;1.458;2023-03-02T07:05:10;16.83;;;8.10;;
49722;SDS011;43484;43.608;1.458;2023-03-02T07:07:37;9.80;;;7.73;;
49722;SDS011;43484;43.608;1.458;2023-03-02T07:10:05;15.07;;;8.03;;
49722;SDS011;43484;43.608;1.458;2023-03-02T07:12:33;11.80;;;8.10;;
49722;SDS011;43484;43.608;1.458;2023-03-02T07:15:00;15.10;;;8.67;;
49722;SDS011;43484;43.608;1.458;2023-03-02T07:17:27;11.47;;;7.47;;
49722;SDS011;43484;43.608;1.458;2023-03-02T07:19:53;16.30;;;8.07;;
49722;SDS011;43484;43.608;1.458;2023-03-02T07:22:20;12.27;;;7.80;;
49722;SDS011;43484;43.608;1.458;2023-03-02T07:24:47;13.97;;;8.40;;
49722;SDS011;43484;43.608;1.458;2023-03-02T07:27:13;11.23;;;8.23;;
49722;SDS011;43484;43.608;1.458;2023-03-02T07:29:40;15.37;;;7.23;;
49722;SDS011;43484;43.608;1.458;2023-03-02T07:32:07;11.33;;;8.00;;
49722;SDS011;43484;43.608;1.458;2023-03-02T07:34:37;10.97;;;7.77;;
49722;SDS011;43484;43.608;1.458;2023-03-02T07:37:03;13.10;;;7.73;;
49722;SDS011;43484;43.608;1.458;2023-03-02T07:39:30;14.77;;;7.93;;
49722;SDS011;43484;43.608;1.458;2023-03-02T07:41:58;15.10;;;8.23;;
49722;SDS011;43484;43.608;1.458;2023-03-02T07:44:26;12.43;;;8.00;;
49722;SDS011;43484;43.608;1.458;2023-03-02T07:46:53;12.90;;;7.80;;
49722;SDS011;43484;43.608;1.458;2023-03-02T07:49:20;11.53;;;7.90;;
49722;SDS011;43484;43.608;1.458;2023-03-02T07:51:46;12.37;;;7.20;;
49722;SDS011;43484;43.608;1.458;2023-03-02T07:54:13;13.20;;;6.53;;
49722;SDS011;43484;43.608;1.458;2023-03-02T07:56:40;10.10;;;7.23;;
49722;SDS011;43484;43.608;1.458;2023-03-02T07:59:06;14.57;;;7.37;;
49722;SDS011;43484;43.608;1.458;2023-03-02T08:01:33;14.90;;;7.27;;
49722;SDS011;43484;43.608;1.458;2023-03-02T08:04:00;9.77;;;6.90;;
49722;SDS011;43484;43.608;1.458;2023-03-02T08:06:26;13.98;;;7.00;;
49722;SDS011;43484;43.608;1.458;2023-03-02T08:08:53;13.93;;;7.57;;
49722;SDS011;43484;43.608;1.458;2023-03-02T08:11:20;11.53;;;7.33;;
49722;SDS011;43484;43.608;1.458;2023-03-02T08:13:47;8.77;;;6.97;;
49722;SDS011;43484;43.608;1.458;2023-03-02T08:16:14;10.90;;;6.53;;
49722;SDS011;43484;43.608;1.458;2023-03-02T08:18:41;9.83;;;7.37;;
49722;SDS011;43484;43.608;1.458;2023-03-02T08:21:16;14.73;;;7.50;;
49722;SDS011;43484;43.608;1.458;2023-03-02T08:23:44;13.43;;;7.43;;
49722;SDS011;43484;43.608;1.458;2023-03-02T08:26:11;13.70;;;8.55;;
49722;SDS011;43484;43.608;1.458;2023-03-02T08:28:42;16.80;;;7.43;;
49722;SDS011;43484;43.608;1.458;2023-03-02T08:31:09;11.47;;;7.20;;
49722;SDS011;43484;43.608;1.458;2023-03-02T08:33:36;13.67;;;8.10;;
49722;SDS011;43484;43.608;1.458;2023-03-02T08:36:04;13.10;;;7.40;;
49722;SDS011;43484;43.608;1.458;2023-03-02T08:38:33;9.73;;;6.75;;
49722;SDS011;43484;43.608;1.458;2023-03-02T08:41:03;10.77;;;7.00;;
49722;SDS011;43484;43.608;1.458;2023-03-02T08:43:32;16.93;;;8.47;;
49722;SDS011;43484;43.608;1.458;2023-03-02T08:45:59;11.37;;;7.53;;
49722;SDS011;43484;43.608;1.458;2023-03-02T08:48:26;11.63;;;7.68;;
49722;SDS011;43484;43.608;1.458;2023-03-02T08:53:20;15.50;;;8.97;;
49722;SDS011;43484;43.608;1.458;2023-03-02T08:55:47;16.58;;;7.75;;
49722;SDS011;43484;43.608;1.458;2023-03-02T08:58:13;13.70;;;9.02;;
49722;SDS011;43484;43.608;1.458;2023-03-02T09:00:40;12.30;;;8.00;;
49722;SDS011;43484;43.608;1.458;2023-03-02T09:03:06;11.23;;;8.00;;
49722;SDS011;43484;43.608;1.458;2023-03-02T09:05:33;19.20;;;8.23;;
49722;SDS011;43484;43.608;1.458;2023-03-02T09:08:01;12.47;;;8.07;;
49722;SDS011;43484;43.608;1.458;2023-03-02T09:10:28;9.00;;;7.15;;
49722;SDS011;43484;43.608;1.458;2023-03-02T09:12:54;15.93;;;8.38;;
49722;SDS011;43484;43.608;1.458;2023-03-02T09:15:21;15.70;;;8.33;;
49722;SDS011;43484;43.608;1.458;2023-03-02T09:17:48;15.40;;;7.77;;
49722;SDS011;43484;43.608;1.458;2023-03-02T09:20:14;15.03;;;8.47;;
49722;SDS011;43484;43.608;1.458;2023-03-02T09:22:41;12.10;;;9.03;;
49722;SDS011;43484;43.608;1.458;2023-03-02T09:25:13;15.50;;;7.80;;
49722;SDS011;43484;43.608;1.458;2023-03-02T09:27:40;12.13;;;7.63;;
49722;SDS011;43484;43.608;1.458;2023-03-02T09:30:07;13.60;;;8.03;;
49722;SDS011;43484;43.608;1.458;2023-03-02T09:32:34;13.57;;;8.33;;
49722;SDS011;43484;43.608;1.458;2023-03-02T09:35:01;11.30;;;7.93;;
49722;SDS011;43484;43.608;1.458;2023-03-02T09:37:28;12.00;;;8.57;;
49722;SDS011;43484;43.608;1.458;2023-03-02T09:39:54;13.70;;;8.77;;
49722;SDS011;43484;43.608;1.458;2023-03-02T09:45:11;17.53;;;8.70;;
49722;SDS011;43484;43.608;1.458;2023-03-02T09:51:27;12.50;;;8.35;;
49722;SDS011;43484;43.608;1.458;2023-03-02T09:53:50;14.65;;;9.18;;
49722;SDS011;43484;43.608;1.458;2023-03-02T09:56:19;13.00;;;8.60;;
49722;SDS011;43484;43.608;1.458;2023-03-02T09:59:04;11.48;;;8.95;;
49722;SDS011;43484;43.608;1.458;2023-03-02T10:01:40;15.48;;;9.27;;
49722;SDS011;43484;43.608;1.458;2023-03-02T10:04:23;15.10;;;10.07;;
49722;SDS011;43484;43.608;1.458;2023-03-02T10:07:53;20.38;;;10.85;;
49722;SDS011;43484;43.608;1.458;2023-03-02T10:09:59;18.02;;;9.25;;
49722;SDS011;43484;43.608;1.458;2023-03-02T10:15:29;14.75;;;9.45;;
49722;SDS011;43484;43.608;1.458;2023-03-02T10:18:12;16.35;;;10.10;;
49722;SDS011;43484;43.608;1.458;2023-03-02T10:23:36;18.15;;;11.15;;
49722;SDS011;43484;43.608;1.458;2023-03-02T10:31:43;18.05;;;11.43;;
49722;SDS011;43484;43.608;1.458;2023-03-02T10:34:12;16.05;;;11.10;;
49722;SDS011;43484;43.608;1.458;2023-03-02T10:36:40;16.27;;;11.00;;
49722;SDS011;43484;43.608;1.458;2023-03-02T10:39:11;19.52;;;11.93;;
49722;SDS011;43484;43.608;1.458;2023-03-02T10:41:55;17.92;;;11.05;;
49722;SDS011;43484;43.608;1.458;2023-03-02T10:44:29;16.20;;;10.77;;
49722;SDS011;43484;43.608;1.458;2023-03-02T10:46:58;17.52;;;11.32;;
49722;SDS011;43484;43.608;1.458;2023-03-02T10:51:54;18.77;;;11.35;;
49722;SDS011;43484;43.608;1.458;2023-03-02T10:54:22;19.52;;;11.35;;
49722;SDS011;43484;43.608;1.458;2023-03-02T10:56:52;18.63;;;12.50;;
49722;SDS011;43484;43.608;1.458;2023-03-02T11:01:59;18.27;;;11.18;;
49722;SDS011;43484;43.608;1.458;2023-03-02T11:04:28;20.90;;;11.20;;
49722;SDS011;43484;43.608;1.458;2023-03-02T11:07:18;20.48;;;11.30;;
49722;SDS011;43484;43.608;1.458;2023-03-02T11:12:29;19.57;;;11.77;;
49722;SDS011;43484;43.608;1.458;2023-03-02T11:17:42;19.25;;;10.50;;
49722;SDS011;43484;43.608;1.458;2023-03-02T11:20:16;16.58;;;11.38;;
49722;SDS011;43484;43.608;1.458;2023-03-02T11:22:52;21.70;;;11.55;;
49722;SDS011;43484;43.608;1.458;2023-03-02T11:25:42;19.95;;;11.48;;
49722;SDS011;43484;43.608;1.458;2023-03-02T11:31:20;17.02;;;11.27;;
49722;SDS011;43484;43.608;1.458;2023-03-02T11:37:19;20.23;;;12.95;;
49722;SDS011;43484;43.608;1.458;2023-03-02T11:42:25;19.13;;;12.25;;
49722;SDS011;43484;43.608;1.458;2023-03-02T11:44:56;22.65;;;13.10;;
49722;SDS011;43484;43.608;1.458;2023-03-02T11:47:27;23.42;;;14.18;;
49722;SDS011;43484;43.608;1.458;2023-03-02T11:49:59;21.00;;;14.10;;
49722;SDS011;43484;43.608;1.458;2023-03-02T11:52:31;22.75;;;13.43;;
49722;SDS011;43484;43.608;1.458;2023-03-02T11:55:05;21.13;;;13.48;;
49722;SDS011;43484;43.608;1.458;2023-03-02T11:57:51;20.95;;;12.82;;
49722;SDS011;43484;43.608;1.458;2023-03-02T12:05:40;22.38;;;14.90;;
49722;SDS011;43484;43.608;1.458;2023-03-02T12:13:28;19.67;;;13.05;;
49722;SDS011;43484;43.608;1.458;2023-03-02T12:16:20;22.15;;;13.98;;
49722;SDS011;43484;43.608;1.458;2023-03-02T12:18:49;20.20;;;14.35;;
49722;SDS011;43484;43.608;1.458;2023-03-02T12:21:23;21.42;;;15.02;;
49722;SDS011;43484;43.608;1.458;2023-03-02T12:28:57;23.42;;;14.95;;
49722;SDS011;43484;43.608;1.458;2023-03-02T12:31:38;25.67;;;14.60;;
49722;SDS011;43484;43.608;1.458;2023-03-02T12:37:14;23.58;;;15.35;;
49722;SDS011;43484;43.608;1.458;2023-03-02T12:47:45;30.48;;;16.00;;
49722;SDS011;43484;43.608;1.458;2023-03-02T12:50:19;27.15;;;15.45;;
49722;SDS011;43484;43.608;1.458;2023-03-02T12:55:26;25.50;;;15.25;;
49722;SDS011;43484;43.608;1.458;2023-03-02T12:57:57;24.20;;;15.80;;
49722;SDS011;43484;43.608;1.458;2023-03-02T13:00:29;24.77;;;15.90;;
49722;SDS011;43484;43.608;1.458;2023-03-02T13:02:58;26.58;;;17.23;;
49722;SDS011;43484;43.608;1.458;2023-03-02T13:05:28;22.77;;;16.35;;
49722;SDS011;43484;43.608;1.458;2023-03-02T13:07:57;28.80;;;17.65;;
49722;SDS011;43484;43.608;1.458;2023-03-02T13:10:29;28.30;;;17.40;;
49722;SDS011;43484;43.608;1.458;2023-03-02T13:13:02;28.00;;;16.47;;
49722;SDS011;43484;43.608;1.458;2023-03-02T13:15:49;30.45;;;16.40;;
49722;SDS011;43484;43.608;1.458;2023-03-02T13:18:16;25.23;;;16.85;;
49722;SDS011;43484;43.608;1.458;2023-03-02T13:20:43;26.67;;;16.02;;
49722;SDS011;43484;43.608;1.458;2023-03-02T13:23:13;27.52;;;17.13;;
49722;SDS011;43484;43.608;1.458;2023-03-02T13:25:54;27.92;;;17.35;;
49722;SDS011;43484;43.608;1.458;2023-03-02T13:28:30;26.52;;;17.13;;
49722;SDS011;43484;43.608;1.458;2023-03-02T13:31:00;27.98;;;17.77;;
49722;SDS011;43484;43.608;1.458;2023-03-02T13:33:29;26.00;;;16.92;;
49722;SDS011;43484;43.608;1.458;2023-03-02T13:35:57;27.17;;;17.80;;
49722;SDS011;43484;43.608;1.458;2023-03-02T13:38:25;27.23;;;18.65;;
49722;SDS011;43484;43.608;1.458;2023-03-02T13:40:56;29.45;;;18.67;;
49722;SDS011;43484;43.608;1.458;2023-03-02T13:45:56;28.63;;;19.27;;
49722;SDS011;43484;43.608;1.458;2023-03-02T13:48:25;31.75;;;18.90;;
49722;SDS011;43484;43.608;1.458;2023-03-02T13:50:58;30.38;;;18.58;;
49722;SDS011;43484;43.608;1.458;2023-03-02T13:53:38;28.08;;;19.73;;
49722;SDS011;43484;43.608;1.458;2023-03-02T13:56:15;29.40;;;19.52;;
49722;SDS011;43484;43.608;1.458;2023-03-02T13:58:43;28.88;;;18.73;;
49722;SDS011;43484;43.608;1.458;2023-03-02T14:01:10;31.00;;;19.65;;
49722;SDS011;43484;43.608;1.458;2023-03-02T14:03:38;28.38;;;18.48;;
49722;SDS011;43484;43.608;1.458;2023-03-02T14:06:05;28.75;;;19.30;;
49722;SDS011;43484;43.608;1.458;2023-03-02T14:08:32;28.58;;;19.17;;
49722;SDS011;43484;43.608;1.458;2023-03-02T14:10:59;28.77;;;19.00;;
49722;SDS011;43484;43.608;1.458;2023-03-02T14:13:29;33.85;;;19.63;;
49722;SDS011;43484;43.608;1.458;2023-03-02T14:16:06;33.22;;;20.88;;
49722;SDS011;43484;43.608;1.458;2023-03-02T14:18:37;32.65;;;21.63;;
49722;SDS011;43484;43.608;1.458;2023-03-02T14:21:15;38.47;;;21.27;;
49722;SDS011;43484;43.608;1.458;2023-03-02T14:23:45;32.65;;;19.92;;
49722;SDS011;43484;43.608;1.458;2023-03-02T14:28:58;32.45;;;20.63;;
49722;SDS011;43484;43.608;1.458;2023-03-02T14:31:31;33.53;;;20.40;;
49722;SDS011;43484;43.608;1.458;2023-03-02T14:33:58;35.80;;;21.67;;
49722;SDS011;43484;43.608;1.458;2023-03-02T14:36:29;35.80;;;20.45;;
49722;SDS011;43484;43.608;1.458;2023-03-02T14:38:59;35.25;;;20.17;;
49722;SDS011;43484;43.608;1.458;2023-03-02T14:41:28;28.13;;;20.23;;
49722;SDS011;43484;43.608;1.458;2023-03-02T14:43:56;32.55;;;20.13;;
49722;SDS011;43484;43.608;1.458;2023-03-02T14:46:23;33.10;;;18.50;;
49722;SDS011;43484;43.608;1.458;2023-03-02T14:48:49;29.77;;;19.15;;
49722;SDS011;43484;43.608;1.458;2023-03-02T14:51:21;32.85;;;19.48;;
49722;SDS011;43484;43.608;1.458;2023-03-02T14:53:52;28.55;;;18.60;;
49722;SDS011;43484;43.608;1.458;2023-03-02T14:56:20;31.80;;;19.75;;
49722;SDS011;43484;43.608;1.458;2023-03-02T14:58:51;33.10;;;20.00;;
49722;SDS011;43484;43.608;1.458;2023-03-02T15:01:19;30.35;;;20.17;;
49722;SDS011;43484;43.608;1.458;2023-03-02T15:03:46;32.03;;;19.27;;
49722;SDS011;43484;43.608;1.458;2023-03-02T15:08:42;29.02;;;19.40;;
49722;SDS011;43484;43.608;1.458;2023-03-02T15:11:08;32.25;;;19.08;;
49722;SDS011;43484;43.608;1.458;2023-03-02T15:13:35;30.75;;;19.35;;
49722;SDS011;43484;43.608;1.458;2023-03-02T15:16:01;31.73;;;19.30;;
49722;SDS011;43484;43.608;1.458;2023-03-02T15:18:28;28.52;;;19.08;;
49722;SDS011;43484;43.608;1.458;2023-03-02T15:20:55;29.00;;;18.67;;
49722;SDS011;43484;43.608;1.458;2023-03-02T15:23:21;31.05;;;19.60;;
49722;SDS011;43484;43.608;1.458;2023-03-02T15:25:48;27.98;;;18.38;;
49722;SDS011;43484;43.608;1.458;2023-03-02T15:28:15;30.08;;;18.75;;
49722;SDS011;43484;43.608;1.458;2023-03-02T15:30:42;33.47;;;18.77;;
49722;SDS011;43484;43.608;1.458;2023-03-02T15:33:08;29.95;;;18.65;;
49722;SDS011;43484;43.608;1.458;2023-03-02T15:35:36;30.35;;;18.77;;
49722;SDS011;43484;43.608;1.458;2023-03-02T15:38:04;30.08;;;19.33;;
49722;SDS011;43484;43.608;1.458;2023-03-02T15:40:35;31.13;;;19.60;;
49722;SDS011;43484;43.608;1.458;2023-03-02T15:43:02;31.52;;;19.70;;
49722;SDS011;43484;43.608;1.458;2023-03-02T15:45:28;34.45;;;19.17;;
49722;SDS011;43484;43.608;1.458;2023-03-02T15:47:55;33.47;;;19.75;;
49722;SDS011;43484;43.608;1.458;2023-03-02T15:50:22;31.73;;;20.02;;
49722;SDS011;43484;43.608;1.458;2023-03-02T15:52:48;35.17;;;19.85;;
49722;SDS011;43484;43.608;1.458;2023-03-02T15:55:16;33.78;;;19.65;;
49722;SDS011;43484;43.608;1.458;2023-03-02T15:57:42;31.50;;;21.08;;
49722;SDS011;43484;43.608;1.458;2023-03-02T16:00:09;34.55;;;19.25;;
49722;SDS011;43484;43.608;1.458;2023-03-02T16:02:38;28.73;;;19.23;;
49722;SDS011;43484;43.608;1.458;2023-03-02T16:05:05;29.10;;;19.73;;
49722;SDS011;43484;43.608;1.458;2023-03-02T16:07:33;33.83;;;20.67;;
49722;SDS011;43484;43.608;1.458;2023-03-02T16:10:01;32.05;;;21.05;;
49722;SDS011;43484;43.608;1.458;2023-03-02T16:12:28;32.88;;;20.52;;
49722;SDS011;43484;43.608;1.458;2023-03-02T16:14:55;28.48;;;19.25;;